sensor_id;sensor_type;location;lat;lon;timestamp;pressure;altitude;pressure_sealevel;temperature;humidity
52735;BME280;38631;47.572;10.704;2022-09-29T00:00:22;91138.78;;;6.02;100.00
52735;BME280;38631;47.572;10.704;2022-09-29T00:02:48;91135.22;;;6.07;100.00
52735;BME280;38631;47.572;10.704;2022-09-29T00:05:13;91134.09;;;5.91;100.00
52735;BME280;38631;47.572;10.704;2022-09-29T00:07:39;91133.22;;;5.95;100.00
52735;BME280;38631;47.572;10.704;2022-09-29T00:10:04;91127.59;;;5.97;100.00
52735;BME280;38631;47.572;10.704;2022-09-29T00:12:30;91115.69;;;5.82;100.00
52735;BME280;38631;47.572;10.704;2022-09-29T00:14:55;91108.38;;;5.61;100.00
52735;BME280;38631;47.572;10.704;2022-09-29T00:17:21;91109.78;;;5.76;100.00
52735;BME280;38631;47.572;10.704;2022-09-29T00:19:46;91113.03;;;5.91;100.00
52735;BME280;38631;47.572;10.704;2022-09-29T00:22:11;91105.75;;;5.88;100.00
52735;BME280;38631;47.572;10.704;2022-09-29T00:24:37;91121.28;;;5.98;100.00
52735;BME280;38631;47.572;10.704;2022-09-29T00:27:02;91121.09;;;6.03;100.00
52735;BME280;38631;47.572;10.704;2022-09-29T00:29:27;91121.09;;;6.03;100.00
52735;BME280;38631;47.572;10.704;2022-09-29T00:31:53;91130.38;;;6.09;100.00
52735;BME280;38631;47.572;10.704;2022-09-29T00:34:18;91131.81;;;6.15;100.00
52735;BME280;38631;47.572;10.704;2022-09-29T00:36:44;91131.50;;;6.08;100.00
52735;BME280;38631;47.572;10.704;2022-09-29T00:39:10;91129.31;;;6.10;100.00
52735;BME280;38631;47.572;10.704;2022-09-29T00:41:37;91130.69;;;6.16;100.00
52735;BME280;38631;47.572;10.704;2022-09-29T00:44:06;91129.16;;;6.15;100.00
52735;BME280;38631;47.572;10.704;2022-09-29T00:52:02;91125.44;;;5.90;100.00
52735;BME280;38631;47.572;10.704;2022-09-29T00:54:32;91132.28;;;6.00;100.00
52735;BME280;38631;47.572;10.704;2022-09-29T00:57:03;91132.56;;;5.98;100.00
52735;BME280;38631;47.572;10.704;2022-09-29T00:59:48;91126.09;;;6.04;100.00
52735;BME280;38631;47.572;10.704;2022-09-29T01:02:17;91120.66;;;6.10;100.00
52735;BME280;38631;47.572;10.704;2022-09-29T01:04:44;91116.94;;;6.02;100.00
52735;BME280;38631;47.572;10.704;2022-09-29T01:07:11;91113.50;;;6.10;100.00
52735;BME280;38631;47.572;10.704;2022-09-29T01:09:38;91114.44;;;6.05;100.00
52735;BME280;38631;47.572;10.704;2022-09-29T01:12:05;91110.53;;;6.12;100.00
52735;BME280;38631;47.572;10.704;2022-09-29T01:14:31;91111.00;;;6.14;100.00
52735;BME280;38631;47.572;10.704;2022-09-29T01:16:58;91112.25;;;6.16;100.00
52735;BME280;38631;47.572;10.704;2022-09-29T01:30:21;91103.28;;;6.00;100.00
52735;BME280;38631;47.572;10.704;2022-09-29T01:33:11;91107.31;;;6.15;100.00
52735;BME280;38631;47.572;10.704;2022-09-29T01:41:17;91106.50;;;6.14;100.00
52735;BME280;38631;47.572;10.704;2022-09-29T01:43:49;91106.50;;;6.14;100.00
52735;BME280;38631;47.572;10.704;2022-09-29T01:48:50;91104.81;;;6.27;100.00
52735;BME280;38631;47.572;10.704;2022-09-29T01:51:21;91104.69;;;6.15;100.00
52735;BME280;38631;47.572;10.704;2022-09-29T01:53:50;91098.47;;;6.11;100.00
52735;BME280;38631;47.572;10.704;2022-09-29T01:56:21;91109.31;;;6.18;100.00
52735;BME280;38631;47.572;10.704;2022-09-29T01:58:55;91111.47;;;6.16;100.00
52735;BME280;38631;47.572;10.704;2022-09-29T02:01:24;91115.81;;;6.20;100.00
52735;BME280;38631;47.572;10.704;2022-09-29T02:04:03;91120.16;;;6.25;100.00
52735;BME280;38631;47.572;10.704;2022-09-29T02:06:35;91117.06;;;6.23;100.00
52735;BME280;38631;47.572;10.704;2022-09-29T02:09:08;91114.13;;;6.24;100.00
52735;BME280;38631;47.572;10.704;2022-09-29T02:11:37;91103.88;;;6.23;100.00
52735;BME280;38631;47.572;10.704;2022-09-29T02:14:11;91109.16;;;6.23;100.00
52735;BME280;38631;47.572;10.704;2022-09-29T02:16:45;91104.94;;;6.22;100.00
52735;BME280;38631;47.572;10.704;2022-09-29T02:19:16;91091.34;;;6.11;100.00
52735;BME280;38631;47.572;10.704;2022-09-29T02:21:44;91096.59;;;6.11;100.00
52735;BME280;38631;47.572;10.704;2022-09-29T02:24:10;91095.81;;;6.19;100.00
52735;BME280;38631;47.572;10.704;2022-09-29T02:26:36;91107.28;;;6.23;100.00
52735;BME280;38631;47.572;10.704;2022-09-29T02:29:03;91105.25;;;6.29;100.00
52735;BME280;38631;47.572;10.704;2022-09-29T02:31:29;91101.22;;;6.32;100.00
52735;BME280;38631;47.572;10.704;2022-09-29T02:33:55;91095.50;;;6.30;100.00
52735;BME280;38631;47.572;10.704;2022-09-29T02:47:35;91095.94;;;6.32;100.00
52735;BME280;38631;47.572;10.704;2022-09-29T02:55:48;91082.78;;;6.23;100.00
52735;BME280;38631;47.572;10.704;2022-09-29T02:58:33;91080.78;;;6.20;100.00
52735;BME280;38631;47.572;10.704;2022-09-29T03:01:02;91082.94;;;6.26;100.00
52735;BME280;38631;47.572;10.704;2022-09-29T03:03:27;91079.81;;;6.33;100.00
52735;BME280;38631;47.572;10.704;2022-09-29T03:05:53;91076.88;;;6.35;100.00
52735;BME280;38631;47.572;10.704;2022-09-29T03:08:18;91076.13;;;6.17;100.00
52735;BME280;38631;47.572;10.704;2022-09-29T03:10:43;91076.41;;;6.24;100.00
52735;BME280;38631;47.572;10.704;2022-09-29T03:13:09;91077.34;;;6.28;100.00
52735;BME280;38631;47.572;10.704;2022-09-29T03:15:34;91075.69;;;6.15;100.00
52735;BME280;38631;47.572;10.704;2022-09-29T03:18:00;91079.41;;;6.14;100.00
52735;BME280;38631;47.572;10.704;2022-09-29T03:20:27;91075.53;;;6.20;100.00
52735;BME280;38631;47.572;10.704;2022-09-29T03:22:56;91075.81;;;6.18;100.00
52735;BME280;38631;47.572;10.704;2022-09-29T03:25:22;91077.34;;;6.19;100.00
52735;BME280;38631;47.572;10.704;2022-09-29T03:27:50;91071.19;;;6.15;100.00
52735;BME280;38631;47.572;10.704;2022-09-29T03:30:17;91070.09;;;6.25;100.00
52735;BME280;38631;47.572;10.704;2022-09-29T03:32:43;91075.06;;;6.18;100.00
52735;BME280;38631;47.572;10.704;2022-09-29T03:35:09;91072.72;;;6.16;100.00
52735;BME280;38631;47.572;10.704;2022-09-29T03:37:34;91069.47;;;6.11;100.00
52735;BME280;38631;47.572;10.704;2022-09-29T03:40:00;91067.91;;;6.18;100.00
52735;BME280;38631;47.572;10.704;2022-09-29T03:42:26;91071.31;;;6.19;100.00
52735;BME280;38631;47.572;10.704;2022-09-29T03:44:53;91070.69;;;6.22;100.00
52735;BME280;38631;47.572;10.704;2022-09-29T03:47:18;91068.22;;;6.25;100.00
52735;BME280;38631;47.572;10.704;2022-09-29T03:49:44;91075.66;;;6.23;100.00
52735;BME280;38631;47.572;10.704;2022-09-29T03:52:09;91075.00;;;6.35;100.00
52735;BME280;38631;47.572;10.704;2022-09-29T03:54:34;91070.38;;;6.32;100.00
52735;BME280;38631;47.572;10.704;2022-09-29T03:57:00;91071.91;;;6.33;100.00
52735;BME280;38631;47.572;10.704;2022-09-29T03:59:25;91080.63;;;6.25;100.00
52735;BME280;38631;47.572;10.704;2022-09-29T04:01:50;91070.38;;;6.23;100.00
52735;BME280;38631;47.572;10.704;2022-09-29T04:04:16;91072.38;;;6.26;100.00
52735;BME280;38631;47.572;10.704;2022-09-29T04:06:41;91074.41;;;6.21;100.00
52735;BME280;38631;47.572;10.704;2022-09-29T04:09:06;91074.09;;;6.31;100.00
52735;BME280;38631;47.572;10.704;2022-09-29T04:11:32;91071.63;;;6.26;100.00
52735;BME280;38631;47.572;10.704;2022-09-29T04:13:57;91072.53;;;6.30;100.00
52735;BME280;38631;47.572;10.704;2022-09-29T04:16:22;91072.69;;;6.34;100.00
52735;BME280;38631;47.572;10.704;2022-09-29T04:18:48;91073.00;;;6.32;100.00
52735;BME280;38631;47.572;10.704;2022-09-29T04:21:13;91067.88;;;6.36;100.00
52735;BME280;38631;47.572;10.704;2022-09-29T04:23:39;91075.78;;;6.36;100.00
52735;BME280;38631;47.572;10.704;2022-09-29T04:26:05;91068.03;;;6.31;100.00
52735;BME280;38631;47.572;10.704;2022-09-29T04:28:31;91071.44;;;6.31;100.00
52735;BME280;38631;47.572;10.704;2022-09-29T04:30:57;91064.47;;;6.35;100.00
52735;BME280;38631;47.572;10.704;2022-09-29T04:33:23;91069.63;;;6.23;100.00
52735;BME280;38631;47.572;10.704;2022-09-29T04:35:48;91071.66;;;6.17;100.00
52735;BME280;38631;47.572;10.704;2022-09-29T04:38:14;91069.47;;;6.11;100.00
52735;BME280;38631;47.572;10.704;2022-09-29T04:40:39;91066.53;;;6.12;100.00
52735;BME280;38631;47.572;10.704;2022-09-29T04:43:04;91070.41;;;6.15;100.00
52735;BME280;38631;47.572;10.704;2022-09-29T04:45:30;91065.75;;;6.20;100.00
52735;BME280;38631;47.572;10.704;2022-09-29T04:47:55;91063.91;;;6.12;100.00
52735;BME280;38631;47.572;10.704;2022-09-29T04:50:21;91071.34;;;6.10;100.00
52735;BME280;38631;47.572;10.704;2022-09-29T04:52:47;91067.47;;;5.90;100.00
52735;BME280;38631;47.572;10.704;2022-09-29T04:55:13;91063.31;;;5.98;100.00
52735;BME280;38631;47.572;10.704;2022-09-29T04:57:40;91058.81;;;6.07;100.00
52735;BME280;38631;47.572;10.704;2022-09-29T05:00:06;91052.41;;;6.17;100.00
52735;BME280;38631;47.572;10.704;2022-09-29T05:02:33;91050.91;;;6.07;100.00
52735;BME280;38631;47.572;10.704;2022-09-29T05:04:58;91050.13;;;5.98;100.00
52735;BME280;38631;47.572;10.704;2022-09-29T05:07:24;91049.66;;;6.04;100.00
52735;BME280;38631;47.572;10.704;2022-09-29T05:09:49;91045.47;;;6.03;100.00
52735;BME280;38631;47.572;10.704;2022-09-29T05:12:14;91039.72;;;6.01;100.00
52735;BME280;38631;47.572;10.704;2022-09-29T05:14:40;91046.25;;;6.04;100.00
52735;BME280;38631;47.572;10.704;2022-09-29T05:17:05;91045.50;;;5.95;100.00
52735;BME280;38631;47.572;10.704;2022-09-29T05:19:31;91043.78;;;5.99;100.00
52735;BME280;38631;47.572;10.704;2022-09-29T05:21:57;91043.44;;;6.09;100.00
52735;BME280;38631;47.572;10.704;2022-09-29T05:24:23;91043.16;;;6.02;100.00
52735;BME280;38631;47.572;10.704;2022-09-29T05:26:48;91041.91;;;6.08;100.00
52735;BME280;38631;47.572;10.704;2022-09-29T05:29:14;91050.56;;;6.17;100.00
52735;BME280;38631;47.572;10.704;2022-09-29T05:31:39;91046.22;;;6.13;100.00
52735;BME280;38631;47.572;10.704;2022-09-29T05:34:05;91042.06;;;6.03;100.00
52735;BME280;38631;47.572;10.704;2022-09-29T05:36:30;91041.25;;;6.11;100.00
52735;BME280;38631;47.572;10.704;2022-09-29T05:38:55;91047.34;;;6.03;100.00
52735;BME280;38631;47.572;10.704;2022-09-29T05:41:21;91047.63;;;6.10;100.00
52735;BME280;38631;47.572;10.704;2022-09-29T05:43:48;91050.22;;;6.19;100.00
52735;BME280;38631;47.572;10.704;2022-09-29T05:46:13;91050.09;;;6.06;100.00
52735;BME280;38631;47.572;10.704;2022-09-29T05:48:41;91045.00;;;6.10;100.00
52735;BME280;38631;47.572;10.704;2022-09-29T05:51:12;91050.91;;;5.90;100.00
52735;BME280;38631;47.572;10.704;2022-09-29T05:53:39;91047.47;;;6.06;100.00
52735;BME280;38631;47.572;10.704;2022-09-29T05:58:31;91049.91;;;6.29;100.00
52735;BME280;38631;47.572;10.704;2022-09-29T06:00:57;91052.53;;;6.29;100.00
52735;BME280;38631;47.572;10.704;2022-09-29T06:03:22;91048.00;;;6.38;100.00
52735;BME280;38631;47.572;10.704;2022-09-29T06:05:47;91057.75;;;6.46;100.00
52735;BME280;38631;47.572;10.704;2022-09-29T06:08:13;91057.28;;;6.44;100.00
52735;BME280;38631;47.572;10.704;2022-09-29T06:10:38;91056.06;;;6.42;100.00
52735;BME280;38631;47.572;10.704;2022-09-29T06:13:04;91061.97;;;6.39;100.00
52735;BME280;38631;47.572;10.704;2022-09-29T06:15:29;91063.19;;;6.41;100.00
52735;BME280;38631;47.572;10.704;2022-09-29T06:17:58;91052.81;;;6.36;100.00
52735;BME280;38631;47.572;10.704;2022-09-29T06:20:23;91046.97;;;6.22;100.00
52735;BME280;38631;47.572;10.704;2022-09-29T06:22:52;91040.47;;;6.19;100.00
52735;BME280;38631;47.572;10.704;2022-09-29T06:25:18;91036.13;;;6.23;100.00
52735;BME280;38631;47.572;10.704;2022-09-29T06:27:43;91035.66;;;6.30;100.00
52735;BME280;38631;47.572;10.704;2022-09-29T06:30:09;91039.19;;;6.34;100.00
52735;BME280;38631;47.572;10.704;2022-09-29T06:32:35;91038.25;;;6.39;100.00
52735;BME280;38631;47.572;10.704;2022-09-29T06:35:01;91041.16;;;6.46;100.00
52735;BME280;38631;47.572;10.704;2022-09-29T06:37:45;91034.34;;;6.45;100.00
52735;BME280;38631;47.572;10.704;2022-09-29T06:40:11;91032.16;;;6.47;100.00
52735;BME280;38631;47.572;10.704;2022-09-29T06:42:37;91045.63;;;6.54;100.00
52735;BME280;38631;47.572;10.704;2022-09-29T06:45:03;91046.09;;;6.56;100.00
52735;BME280;38631;47.572;10.704;2022-09-29T06:47:29;91047.19;;;6.55;100.00
52735;BME280;38631;47.572;10.704;2022-09-29T06:49:54;91046.69;;;6.62;100.00
52735;BME280;38631;47.572;10.704;2022-09-29T06:52:19;91047.00;;;6.60;100.00
52735;BME280;38631;47.572;10.704;2022-09-29T06:54:45;91048.09;;;6.59;100.00
52735;BME280;38631;47.572;10.704;2022-09-29T06:57:10;91044.09;;;6.53;100.00
52735;BME280;38631;47.572;10.704;2022-09-29T06:59:36;91052.00;;;6.53;100.00
52735;BME280;38631;47.572;10.704;2022-09-29T07:02:01;91048.69;;;6.65;100.00
52735;BME280;38631;47.572;10.704;2022-09-29T07:04:27;91050.69;;;6.68;100.00
52735;BME280;38631;47.572;10.704;2022-09-29T07:06:53;91045.09;;;6.69;100.00
52735;BME280;38631;47.572;10.704;2022-09-29T07:09:19;91041.88;;;6.64;100.00
52735;BME280;38631;47.572;10.704;2022-09-29T07:11:46;91050.06;;;6.71;100.00
52735;BME280;38631;47.572;10.704;2022-09-29T07:14:13;91041.47;;;6.83;100.00
52735;BME280;38631;47.572;10.704;2022-09-29T07:16:38;91044.16;;;6.74;100.00
52735;BME280;38631;47.572;10.704;2022-09-29T07:19:04;91044.47;;;6.73;100.00
52735;BME280;38631;47.572;10.704;2022-09-29T07:21:29;91054.38;;;6.76;100.00
52735;BME280;38631;47.572;10.704;2022-09-29T07:23:54;91052.84;;;6.75;100.00
52735;BME280;38631;47.572;10.704;2022-09-29T07:26:20;91053.28;;;6.77;100.00
52735;BME280;38631;47.572;10.704;2022-09-29T07:28:46;91053.44;;;6.80;100.00
52735;BME280;38631;47.572;10.704;2022-09-29T07:31:15;91053.56;;;6.84;100.00
52735;BME280;38631;47.572;10.704;2022-09-29T07:33:41;91052.81;;;6.83;100.00
52735;BME280;38631;47.572;10.704;2022-09-29T07:36:07;91061.00;;;6.90;100.00
52735;BME280;38631;47.572;10.704;2022-09-29T07:38:32;91057.59;;;6.90;100.00
52735;BME280;38631;47.572;10.704;2022-09-29T07:40:59;91065.81;;;6.88;100.00
52735;BME280;38631;47.572;10.704;2022-09-29T07:43:26;91075.13;;;6.86;100.00
52735;BME280;38631;47.572;10.704;2022-09-29T07:45:51;91078.31;;;6.70;100.00
52735;BME280;38631;47.572;10.704;2022-09-29T07:48:17;91071.13;;;6.80;100.00
52735;BME280;38631;47.572;10.704;2022-09-29T07:50:44;91069.84;;;6.86;100.00
52735;BME280;38631;47.572;10.704;2022-09-29T07:53:10;91071.25;;;6.83;100.00
52735;BME280;38631;47.572;10.704;2022-09-29T07:55:36;91079.19;;;6.83;100.00
52735;BME280;38631;47.572;10.704;2022-09-29T07:58:01;91075.25;;;6.89;100.00
52735;BME280;38631;47.572;10.704;2022-09-29T08:00:28;91084.88;;;6.94;100.00
52735;BME280;38631;47.572;10.704;2022-09-29T08:02:58;91075.72;;;6.91;100.00
52735;BME280;38631;47.572;10.704;2022-09-29T08:05:24;91085.50;;;6.91;100.00
52735;BME280;38631;47.572;10.704;2022-09-29T08:07:51;91083.78;;;6.95;100.00
52735;BME280;38631;47.572;10.704;2022-09-29T08:10:18;91089.00;;;7.04;100.00
52735;BME280;38631;47.572;10.704;2022-09-29T08:12:43;91085.03;;;6.98;100.00
52735;BME280;38631;47.572;10.704;2022-09-29T08:15:08;91098.81;;;7.03;100.00
52735;BME280;38631;47.572;10.704;2022-09-29T08:17:34;91098.34;;;7.01;100.00
52735;BME280;38631;47.572;10.704;2022-09-29T08:19:59;91099.44;;;7.00;100.00
52735;BME280;38631;47.572;10.704;2022-09-29T08:22:25;91103.16;;;6.99;100.00
52735;BME280;38631;47.572;10.704;2022-09-29T08:24:50;91099.25;;;7.05;100.00
52735;BME280;38631;47.572;10.704;2022-09-29T08:27:15;91104.56;;;6.97;100.00
52735;BME280;38631;47.572;10.704;2022-09-29T08:29:41;91104.72;;;7.00;100.00
52735;BME280;38631;47.572;10.704;2022-09-29T08:32:06;91107.47;;;7.12;100.00
52735;BME280;38631;47.572;10.704;2022-09-29T08:34:32;91113.50;;;7.13;100.00
52735;BME280;38631;47.572;10.704;2022-09-29T08:36:57;91114.47;;;7.08;100.00
52735;BME280;38631;47.572;10.704;2022-09-29T08:39:22;91114.16;;;7.10;100.00
52735;BME280;38631;47.572;10.704;2022-09-29T08:44:39;91127.00;;;7.11;100.00
52735;BME280;38631;47.572;10.704;2022-09-29T08:47:16;91127.28;;;7.19;100.00
52735;BME280;38631;47.572;10.704;2022-09-29T08:49:46;91133.53;;;7.14;100.00
52735;BME280;38631;47.572;10.704;2022-09-29T08:52:19;91138.78;;;7.14;100.00
52735;BME280;38631;47.572;10.704;2022-09-29T08:54:47;91129.66;;;7.11;100.00
52735;BME280;38631;47.572;10.704;2022-09-29T08:57:17;91136.66;;;7.07;100.00
52735;BME280;38631;47.572;10.704;2022-09-29T08:59:51;91135.09;;;7.15;100.00
52735;BME280;38631;47.572;10.704;2022-09-29T09:06:06;91139.53;;;7.23;100.00
52735;BME280;38631;47.572;10.704;2022-09-29T09:24:58;91156.56;;;7.34;100.00
52735;BME280;38631;47.572;10.704;2022-09-29T09:27:30;91159.34;;;7.38;100.00
52735;BME280;38631;47.572;10.704;2022-09-29T09:30:05;91153.47;;;7.32;100.00
52735;BME280;38631;47.572;10.704;2022-09-29T09:32:36;91149.00;;;7.24;100.00
52735;BME280;38631;47.572;10.704;2022-09-29T09:38:02;91139.81;;;7.30;100.00
52735;BME280;38631;47.572;10.704;2022-09-29T09:40:36;91153.16;;;7.34;100.00
52735;BME280;38631;47.572;10.704;2022-09-29T09:43:09;91151.28;;;7.34;100.00
52735;BME280;38631;47.572;10.704;2022-09-29T09:45:54;91144.91;;;7.35;100.00
52735;BME280;38631;47.572;10.704;2022-09-29T09:49:02;91152.50;;;7.37;100.00
52735;BME280;38631;47.572;10.704;2022-09-29T09:53:51;91156.56;;;7.34;100.00
52735;BME280;38631;47.572;10.704;2022-09-29T09:56:39;91163.53;;;7.39;100.00
52735;BME280;38631;47.572;10.704;2022-09-29T10:01:40;91163.88;;;7.38;100.00
52735;BME280;38631;47.572;10.704;2022-09-29T10:04:07;91173.69;;;7.28;100.00
52735;BME280;38631;47.572;10.704;2022-09-29T10:06:36;91173.03;;;7.31;100.00
52735;BME280;38631;47.572;10.704;2022-09-29T10:09:01;91174.91;;;7.31;100.00
52735;BME280;38631;47.572;10.704;2022-09-29T10:11:29;91173.50;;;7.33;100.00
52735;BME280;38631;47.572;10.704;2022-09-29T10:14:23;91172.03;;;7.45;100.00
52735;BME280;38631;47.572;10.704;2022-09-29T10:17:02;91169.91;;;7.38;100.00
52735;BME280;38631;47.572;10.704;2022-09-29T10:20:04;91171.50;;;7.30;100.00
52735;BME280;38631;47.572;10.704;2022-09-29T10:22:30;91174.16;;;7.30;100.00
52735;BME280;38631;47.572;10.704;2022-09-29T10:25:16;91180.66;;;7.33;100.00
52735;BME280;38631;47.572;10.704;2022-09-29T10:27:48;91180.66;;;7.33;100.00
52735;BME280;38631;47.572;10.704;2022-09-29T10:30:24;91185.00;;;7.29;100.00
52735;BME280;38631;47.572;10.704;2022-09-29T10:32:58;91177.44;;;7.27;100.00
52735;BME280;38631;47.572;10.704;2022-09-29T10:38:05;91189.03;;;7.35;100.00
52735;BME280;38631;47.572;10.704;2022-09-29T10:40:32;91185.78;;;7.29;100.00
52735;BME280;38631;47.572;10.704;2022-09-29T10:43:22;91192.09;;;7.46;100.00
52735;BME280;38631;47.572;10.704;2022-09-29T10:45:48;91189.28;;;7.42;100.00
52735;BME280;38631;47.572;10.704;2022-09-29T10:48:14;91189.81;;;7.35;100.00
52735;BME280;38631;47.572;10.704;2022-09-29T10:50:54;91184.38;;;7.32;100.00
52735;BME280;38631;47.572;10.704;2022-09-29T10:55:55;91185.13;;;7.41;100.00
52735;BME280;38631;47.572;10.704;2022-09-29T10:58:29;91193.50;;;7.43;100.00
52735;BME280;38631;47.572;10.704;2022-09-29T11:01:04;91189.16;;;7.39;100.00
52735;BME280;38631;47.572;10.704;2022-09-29T11:03:33;91190.69;;;7.48;100.00
52735;BME280;38631;47.572;10.704;2022-09-29T11:06:05;91195.03;;;7.44;100.00
52735;BME280;38631;47.572;10.704;2022-09-29T11:08:31;91188.41;;;7.38;100.00
52735;BME280;38631;47.572;10.704;2022-09-29T11:11:18;91195.00;;;7.53;100.00
52735;BME280;38631;47.572;10.704;2022-09-29T11:13:45;91195.31;;;7.51;100.00
52735;BME280;38631;47.572;10.704;2022-09-29T11:16:17;91196.72;;;7.49;100.00
52735;BME280;38631;47.572;10.704;2022-09-29T11:18:48;91202.97;;;7.44;100.00
52735;BME280;38631;47.572;10.704;2022-09-29T11:29:09;91208.53;;;7.51;100.00
52735;BME280;38631;47.572;10.704;2022-09-29T11:34:36;91206.63;;;7.61;100.00
52735;BME280;38631;47.572;10.704;2022-09-29T11:37:39;91209.75;;;7.54;100.00
52735;BME280;38631;47.572;10.704;2022-09-29T11:40:11;91222.66;;;7.55;100.00
52735;BME280;38631;47.572;10.704;2022-09-29T11:45:04;91210.50;;;7.63;100.00
52735;BME280;38631;47.572;10.704;2022-09-29T11:50:58;91205.59;;;7.74;100.00
52735;BME280;38631;47.572;10.704;2022-09-29T11:53:38;91202.66;;;7.75;100.00
52735;BME280;38631;47.572;10.704;2022-09-29T11:56:25;91209.53;;;7.68;100.00
52735;BME280;38631;47.572;10.704;2022-09-29T11:59:41;91211.84;;;7.69;100.00
52735;BME280;38631;47.572;10.704;2022-09-29T12:15:57;91206.25;;;7.71;100.00
52735;BME280;38631;47.572;10.704;2022-09-29T12:18:38;91213.06;;;7.72;100.00
52735;BME280;38631;47.572;10.704;2022-09-29T12:21:06;91217.97;;;7.61;100.00
52735;BME280;38631;47.572;10.704;2022-09-29T12:23:34;91211.03;;;7.77;100.00
52735;BME280;38631;47.572;10.704;2022-09-29T12:26:08;91203.44;;;7.76;100.00
52735;BME280;38631;47.572;10.704;2022-09-29T12:31:26;91206.34;;;7.83;100.00
52735;BME280;38631;47.572;10.704;2022-09-29T12:33:56;91212.97;;;7.89;100.00
52735;BME280;38631;47.572;10.704;2022-09-29T12:36:37;91224.31;;;7.90;100.00
52735;BME280;38631;47.572;10.704;2022-09-29T12:44:44;91217.13;;;7.69;100.00
52735;BME280;38631;47.572;10.704;2022-09-29T12:47:23;91210.13;;;7.73;100.00
52735;BME280;38631;47.572;10.704;2022-09-29T12:50:13;91210.25;;;7.77;100.00
52735;BME280;38631;47.572;10.704;2022-09-29T12:52:59;91207.41;;;7.82;100.00
52735;BME280;38631;47.572;10.704;2022-09-29T12:55:41;91211.16;;;7.81;100.00
52735;BME280;38631;47.572;10.704;2022-09-29T12:58:58;91205.69;;;7.86;100.00
52735;BME280;38631;47.572;10.704;2022-09-29T13:01:10;91201.28;;;7.69;100.00
52735;BME280;38631;47.572;10.704;2022-09-29T13:10:16;91211.63;;;7.83;100.00
52735;BME280;38631;47.572;10.704;2022-09-29T13:13:18;91206.19;;;7.79;100.00
52735;BME280;38631;47.572;10.704;2022-09-29T13:30:01;91216.81;;;7.71;100.00
52735;BME280;38631;47.572;10.704;2022-09-29T13:32:27;91223.16;;;7.78;100.00
52735;BME280;38631;47.572;10.704;2022-09-29T13:34:56;91224.25;;;7.77;100.00
52735;BME280;38631;47.572;10.704;2022-09-29T13:37:24;91229.66;;;7.81;100.00
52735;BME280;38631;47.572;10.704;2022-09-29T13:40:03;91231.38;;;7.77;100.00
52735;BME280;38631;47.572;10.704;2022-09-29T13:42:44;91230.63;;;7.76;100.00
52735;BME280;38631;47.572;10.704;2022-09-29T13:45:36;91234.81;;;7.77;100.00
52735;BME280;38631;47.572;10.704;2022-09-29T13:48:02;91239.00;;;7.78;100.00
52735;BME280;38631;47.572;10.704;2022-09-29T13:58:30;91248.91;;;7.90;100.00
52735;BME280;38631;47.572;10.704;2022-09-29T14:00:57;91256.66;;;7.87;100.00
52735;BME280;38631;47.572;10.704;2022-09-29T14:08:38;91244.88;;;7.84;100.00
52735;BME280;38631;47.572;10.704;2022-09-29T14:14:06;91254.28;;;7.73;100.00
52735;BME280;38631;47.572;10.704;2022-09-29T14:19:23;91264.00;;;7.81;100.00
52735;BME280;38631;47.572;10.704;2022-09-29T14:21:57;91266.53;;;7.77;100.00
52735;BME280;38631;47.572;10.704;2022-09-29T14:27:29;91274.47;;;7.77;100.00
52735;BME280;38631;47.572;10.704;2022-09-29T14:35:31;91271.03;;;7.77;100.00
52735;BME280;38631;47.572;10.704;2022-09-29T14:40:31;91277.09;;;7.77;100.00
52735;BME280;38631;47.572;10.704;2022-09-29T14:43:14;91272.59;;;7.78;100.00
52735;BME280;38631;47.572;10.704;2022-09-29T14:46:13;91273.34;;;7.78;100.00
52735;BME280;38631;47.572;10.704;2022-09-29T14:52:05;91274.47;;;7.77;100.00
52735;BME280;38631;47.572;10.704;2022-09-29T14:54:41;91283.63;;;7.80;100.00
52735;BME280;38631;47.572;10.704;2022-09-29T14:57:22;91275.53;;;7.76;100.00
52735;BME280;38631;47.572;10.704;2022-09-29T15:00:01;91285.50;;;7.71;100.00
52735;BME280;38631;47.572;10.704;2022-09-29T15:02:29;91291.25;;;7.73;100.00
52735;BME280;38631;47.572;10.704;2022-09-29T15:04:55;91280.88;;;7.68;100.00
52735;BME280;38631;47.572;10.704;2022-09-29T15:07:26;91284.59;;;7.67;100.00
52735;BME280;38631;47.572;10.704;2022-09-29T15:09:54;91282.28;;;7.65;100.00
52735;BME280;38631;47.572;10.704;2022-09-29T15:12:26;91283.94;;;7.70;100.00
52735;BME280;38631;47.572;10.704;2022-09-29T15:14:53;91293.91;;;7.64;100.00
52735;BME280;38631;47.572;10.704;2022-09-29T15:17:41;91289.59;;;7.60;100.00
52735;BME280;38631;47.572;10.704;2022-09-29T15:20:26;91290.50;;;7.64;100.00
52735;BME280;38631;47.572;10.704;2022-09-29T15:25:44;91295.03;;;7.63;100.00
52735;BME280;38631;47.572;10.704;2022-09-29T15:28:17;91301.56;;;7.57;100.00
52735;BME280;38631;47.572;10.704;2022-09-29T15:30:44;91301.13;;;7.55;100.00
52735;BME280;38631;47.572;10.704;2022-09-29T15:33:26;91303.47;;;7.39;100.00
52735;BME280;38631;47.572;10.704;2022-09-29T15:36:06;91298.97;;;7.48;100.00
52735;BME280;38631;47.572;10.704;2022-09-29T15:38:35;91297.97;;;7.62;100.00
52735;BME280;38631;47.572;10.704;2022-09-29T15:43:43;91300.50;;;7.49;100.00
52735;BME280;38631;47.572;10.704;2022-09-29T15:46:21;91300.22;;;7.42;100.00
52735;BME280;38631;47.572;10.704;2022-09-29T15:49:07;91300.03;;;7.47;100.00
52735;BME280;38631;47.572;10.704;2022-09-29T15:51:34;91305.66;;;7.46;100.00
52735;BME280;38631;47.572;10.704;2022-09-29T15:54:01;91307.88;;;7.35;100.00
52735;BME280;38631;47.572;10.704;2022-09-29T15:56:33;91320.72;;;7.45;100.00
52735;BME280;38631;47.572;10.704;2022-09-29T15:59:18;91327.13;;;7.35;100.00
52735;BME280;38631;47.572;10.704;2022-09-29T16:01:44;91328.81;;;7.40;100.00